Time;durP1;ratioP1;P1;durP2;ratioP2;P2;SDS_P1;SDS_P2;PMS_P1;PMS_P2;Temp;Humidity;BMP_temperature;BMP_pressure;BME280_temperature;BME280_humidity;BME280_pressure;Samples;Min_cycle;Max_cycle;Signal;HPM_P1;HPM_P2
2023/07/09 00:00:54;;;;;;;1.47;1.37;;;17.00;99.90;;;;;;5035586;28;20472;-70
2023/07/09 00:03:20;;;;;;;1.83;1.73;;;16.90;99.90;;;;;;5035527;28;20440;-70
2023/07/09 00:05:48;;;;;;;1.80;1.70;;;16.80;99.90;;;;;;5035310;28;20175;-70
2023/07/09 00:08:31;;;;;;;1.73;1.60;;;16.80;99.90;;;;;;5035494;28;20313;-69
2023/07/09 00:10:57;;;;;;;1.17;1.07;;;16.80;99.90;;;;;;5035570;28;20433;-70
2023/07/09 00:13:24;;;;;;;1.70;1.10;;;16.80;99.90;;;;;;5035290;28;20452;-70
2023/07/09 00:15:50;;;;;;;1.47;1.37;;;16.90;99.90;;;;;;5035182;28;20890;-70
2023/07/09 00:18:16;;;;;;;0.70;0.70;;;16.90;99.90;;;;;;5035277;28;20769;-69
2023/07/09 00:20:43;;;;;;;1.03;1.03;;;16.70;99.90;;;;;;5035144;28;20402;-70
2023/07/09 00:23:13;;;;;;;0.50;0.40;;;16.90;99.90;;;;;;5035490;28;20171;-70
2023/07/09 00:25:43;;;;;;;3.50;1.70;;;16.90;99.90;;;;;;5035116;28;20796;-69
2023/07/09 00:28:20;;;;;;;4.93;1.73;;;16.90;99.90;;;;;;5035169;28;20409;-70
2023/07/09 00:30:46;;;;;;;1.03;1.03;;;17.00;99.90;;;;;;5034926;28;20414;-70
2023/07/09 00:33:18;;;;;;;2.03;1.93;;;17.00;99.90;;;;;;5034926;28;20858;-70
2023/07/09 00:35:50;;;;;;;2.83;2.20;;;17.00;99.90;;;;;;5034987;28;20421;-70
2023/07/09 00:38:21;;;;;;;1.03;1.00;;;16.80;99.90;;;;;;5035023;28;20409;-69
2023/07/09 00:41:17;;;;;;;0.60;0.60;;;16.70;99.90;;;;;;5035068;28;20402;-69
2023/07/09 00:43:43;;;;;;;1.33;1.23;;;16.70;99.90;;;;;;5034903;28;20957;-70
2023/07/09 00:46:22;;;;;;;1.63;1.50;;;16.70;99.90;;;;;;5034644;28;20777;-69
2023/07/09 00:48:53;;;;;;;0.80;0.80;;;16.80;99.90;;;;;;5017187;28;20424;-69
2023/07/09 00:51:21;;;;;;;4.83;1.33;;;16.90;99.90;;;;;;5034777;28;20559;-69
2023/07/09 00:53:51;;;;;;;1.60;1.50;;;16.80;99.90;;;;;;5034563;28;20457;-70
2023/07/09 00:56:27;;;;;;;1.40;1.30;;;16.90;99.90;;;;;;5034395;28;20409;-70
2023/07/09 00:58:55;;;;;;;0.70;0.70;;;16.90;99.90;;;;;;5034682;28;20398;-70
2023/07/09 01:01:21;;;;;;;0.60;0.60;;;16.90;99.90;;;;;;5034312;28;20449;-70
2023/07/09 01:03:58;;;;;;;1.57;1.50;;;16.80;99.90;;;;;;5034452;28;20774;-69
2023/07/09 01:06:32;;;;;;;0.53;0.53;;;16.70;99.90;;;;;;5034058;28;20413;-70
2023/07/09 01:09:00;;;;;;;2.20;0.90;;;16.70;99.90;;;;;;5034328;28;20492;-70
2023/07/09 01:11:26;;;;;;;1.43;1.10;;;16.80;99.90;;;;;;5016648;28;20441;-69
2023/07/09 01:13:56;;;;;;;1.80;1.17;;;16.80;99.90;;;;;;5034195;28;20497;-70
2023/07/09 01:16:25;;;;;;;1.20;1.10;;;16.80;99.90;;;;;;5016278;28;20420;-70
2023/07/09 01:18:51;;;;;;;0.77;0.77;;;16.80;99.90;;;;;;5034209;28;20398;-70
2023/07/09 01:21:17;;;;;;;1.20;1.03;;;16.80;99.90;;;;;;5034021;28;20436;-69
2023/07/09 01:23:45;;;;;;;9.33;0.77;;;16.80;99.90;;;;;;5034091;28;20786;-70
2023/07/09 01:26:13;;;;;;;1.67;1.57;;;16.80;99.90;;;;;;5033935;28;20178;-70
2023/07/09 01:28:43;;;;;;;2.07;1.87;;;16.80;99.90;;;;;;5033946;28;20416;-70
2023/07/09 01:31:11;;;;;;;2.93;2.37;;;16.90;99.90;;;;;;5033915;28;20471;-70
2023/07/09 01:33:39;;;;;;;1.67;1.33;;;16.80;99.90;;;;;;5034026;28;20450;-70
2023/07/09 01:36:06;;;;;;;1.03;0.73;;;16.80;99.90;;;;;;5033727;28;20420;-70
2023/07/09 01:38:33;;;;;;;2.57;1.83;;;16.60;99.90;;;;;;5033808;28;20416;-69
2023/07/09 01:40:59;;;;;;;2.10;2.00;;;16.60;99.90;;;;;;5033729;28;20846;-69
2023/07/09 01:43:26;;;;;;;1.03;1.00;;;16.60;99.90;;;;;;5016017;28;20417;-69
2023/07/09 01:45:52;;;;;;;0.80;0.70;;;16.70;99.90;;;;;;5033516;28;20413;-69
2023/07/09 01:48:20;;;;;;;2.33;2.17;;;16.70;99.90;;;;;;5033757;28;20406;-69
2023/07/09 01:50:49;;;;;;;0.87;0.87;;;16.90;99.90;;;;;;5033760;28;20406;-69
2023/07/09 01:53:17;;;;;;;0.70;0.70;;;16.80;99.90;;;;;;5033484;28;20469;-69
2023/07/09 01:55:44;;;;;;;1.47;1.10;;;16.80;99.90;;;;;;5033425;28;20405;-69
2023/07/09 01:58:10;;;;;;;2.30;1.93;;;16.70;99.90;;;;;;5033399;28;20777;-70
2023/07/09 02:00:37;;;;;;;0.77;0.77;;;16.70;99.90;;;;;;5015656;28;20437;-70
2023/07/09 02:03:04;;;;;;;2.87;1.10;;;16.80;99.90;;;;;;5033425;28;20413;-69
2023/07/09 02:05:35;;;;;;;1.00;1.00;;;16.80;99.90;;;;;;5033447;28;20408;-69
2023/07/09 02:08:01;;;;;;;1.07;1.07;;;16.70;99.90;;;;;;5033738;28;20414;-70
2023/07/09 02:10:26;;;;;;;0.83;0.80;;;16.60;99.90;;;;;;5033316;28;20421;-69
2023/07/09 02:12:52;;;;;;;1.77;1.63;;;16.50;99.90;;;;;;5033255;28;20729;-69
2023/07/09 02:15:18;;;;;;;3.43;2.30;;;16.50;99.90;;;;;;5033556;28;20234;-70
2023/07/09 02:17:44;;;;;;;1.60;1.50;;;16.60;99.90;;;;;;5032829;28;20179;-69
2023/07/09 02:20:10;;;;;;;1.10;1.10;;;16.60;99.90;;;;;;5033278;28;20573;-69
2023/07/09 02:22:37;;;;;;;0.87;0.87;;;16.70;99.90;;;;;;5033201;28;20437;-69
2023/07/09 02:25:05;;;;;;;1.43;1.33;;;16.70;99.90;;;;;;5033120;28;20461;-70
2023/07/09 02:27:32;;;;;;;1.27;1.20;;;16.70;99.90;;;;;;5033052;28;20501;-70
2023/07/09 02:29:57;;;;;;;0.90;0.90;;;16.60;99.90;;;;;;5033146;28;20496;-69
2023/07/09 02:32:26;;;;;;;1.70;1.60;;;16.50;99.90;;;;;;5033042;28;20547;-69
2023/07/09 02:34:52;;;;;;;2.07;1.93;;;16.50;99.90;;;;;;5033256;28;20505;-70
2023/07/09 02:37:25;;;;;;;0.70;0.70;;;16.50;99.90;;;;;;5033169;28;20849;-69
2023/07/09 02:39:51;;;;;;;1.53;1.43;;;16.40;99.90;;;;;;5033453;28;20736;-69
2023/07/09 02:42:19;;;;;;;0.83;0.83;;;16.50;99.90;;;;;;5033177;28;20438;-70
2023/07/09 02:44:45;;;;;;;0.90;0.80;;;16.50;99.90;;;;;;5033150;28;20472;-70
2023/07/09 02:47:11;;;;;;;0.80;0.80;;;16.60;99.90;;;;;;5033069;28;20428;-70
2023/07/09 02:49:38;;;;;;;4.07;3.70;;;16.60;99.90;;;;;;5033256;28;20508;-69
2023/07/09 02:52:04;;;;;;;2.50;1.00;;;16.50;99.90;;;;;;5032579;28;20459;-70
2023/07/09 02:54:30;;;;;;;1.80;1.70;;;16.50;99.90;;;;;;5015170;28;20809;-69
2023/07/09 02:56:56;;;;;;;1.37;1.23;;;16.50;99.90;;;;;;5033004;28;20397;-70
2023/07/09 02:59:22;;;;;;;1.20;1.10;;;16.50;99.90;;;;;;5033018;28;20622;-69
2023/07/09 03:01:49;;;;;;;1.70;1.60;;;16.50;99.90;;;;;;5032872;28;20217;-69
2023/07/09 03:04:15;;;;;;;3.60;0.70;;;16.40;99.90;;;;;;5032683;28;20468;-69
2023/07/09 03:06:40;;;;;;;1.00;0.90;;;16.50;99.90;;;;;;5032677;28;20943;-70
2023/07/09 03:09:07;;;;;;;2.00;1.00;;;16.60;99.90;;;;;;5032855;28;20175;-70
2023/07/09 03:11:34;;;;;;;1.00;0.90;;;16.50;99.90;;;;;;5032918;28;20318;-70
2023/07/09 03:14:01;;;;;;;3.50;1.43;;;16.50;99.90;;;;;;5015089;28;20503;-69
2023/07/09 03:16:32;;;;;;;11.73;2.10;;;16.40;99.90;;;;;;5032542;28;20409;-69
2023/07/09 03:18:58;;;;;;;3.03;1.33;;;16.40;99.90;;;;;;5032923;28;20409;-69
2023/07/09 03:21:25;;;;;;;1.20;1.10;;;16.40;99.90;;;;;;5032764;28;20956;-69
2023/07/09 03:23:52;;;;;;;3.23;2.70;;;16.40;99.90;;;;;;5032710;28;20402;-69
2023/07/09 03:26:17;;;;;;;1.53;1.43;;;16.50;99.90;;;;;;5032252;28;20420;-70
2023/07/09 03:28:43;;;;;;;0.73;0.73;;;16.40;99.90;;;;;;5032280;28;20426;-69
2023/07/09 03:31:09;;;;;;;1.37;1.27;;;16.40;99.90;;;;;;5034550;28;20208;-70
2023/07/09 03:33:35;;;;;;;2.60;2.50;;;16.50;99.90;;;;;;5036093;28;20293;-70
2023/07/09 03:36:00;;;;;;;0.87;0.87;;;16.50;99.90;;;;;;5036078;28;20163;-69
2023/07/09 03:38:26;;;;;;;1.20;1.13;;;16.60;99.90;;;;;;5036207;28;20224;-70
2023/07/09 03:40:55;;;;;;;1.30;1.20;;;16.60;99.90;;;;;;5035989;28;20248;-69
2023/07/09 03:43:21;;;;;;;1.77;1.30;;;16.50;99.90;;;;;;5035987;28;20178;-69
2023/07/09 03:45:47;;;;;;;0.60;0.60;;;16.50;99.90;;;;;;5036092;28;20504;-70
2023/07/09 03:48:15;;;;;;;1.03;0.60;;;16.50;99.90;;;;;;5036036;28;20413;-70
2023/07/09 03:50:43;;;;;;;0.90;0.90;;;16.50;99.90;;;;;;5035787;28;20452;-70
2023/07/09 03:53:09;;;;;;;2.63;1.50;;;16.50;99.90;;;;;;5035822;28;20968;-70
2023/07/09 03:55:35;;;;;;;2.07;1.93;;;16.50;99.90;;;;;;5035551;28;20405;-70
2023/07/09 03:58:02;;;;;;;4.43;1.87;;;16.40;99.90;;;;;;5035670;28;20410;-70
2023/07/09 04:00:28;;;;;;;0.93;0.93;;;16.40;99.90;;;;;;5035688;28;20670;-70
2023/07/09 04:02:56;;;;;;;1.63;1.53;;;16.40;99.90;;;;;;5035567;28;20492;-69
2023/07/09 04:05:22;;;;;;;1.07;0.93;;;16.40;99.90;;;;;;5035590;28;20440;-70
2023/07/09 04:07:48;;;;;;;1.03;0.93;;;16.40;99.90;;;;;;5035323;28;20413;-70
2023/07/09 04:10:14;;;;;;;0.93;0.93;;;16.60;99.90;;;;;;5035471;28;20448;-70
2023/07/09 04:12:40;;;;;;;2.00;1.90;;;16.70;99.90;;;;;;5035305;28;20210;-70
2023/07/09 04:15:07;;;;;;;1.80;1.70;;;16.70;99.90;;;;;;5035393;28;20405;-70
2023/07/09 04:17:32;;;;;;;3.87;1.70;;;16.70;99.90;;;;;;5035362;28;20893;-70
2023/07/09 04:19:58;;;;;;;1.13;1.10;;;16.70;99.90;;;;;;5035487;28;20413;-70
2023/07/09 04:22:24;;;;;;;2.27;1.50;;;16.70;99.90;;;;;;5035213;28;20234;-69
2023/07/09 04:24:50;;;;;;;1.00;0.87;;;16.80;99.90;;;;;;5035237;28;20270;-70
2023/07/09 04:27:16;;;;;;;1.00;1.00;;;16.70;99.90;;;;;;5035058;28;20175;-70
2023/07/09 04:29:42;;;;;;;1.10;1.10;;;16.70;99.90;;;;;;5035087;28;20459;-70
2023/07/09 04:32:12;;;;;;;1.33;0.93;;;16.80;99.90;;;;;;5035085;28;20921;-70
2023/07/09 04:34:39;;;;;;;1.73;1.63;;;16.80;99.90;;;;;;5035046;28;20185;-69
2023/07/09 04:37:09;;;;;;;1.70;1.53;;;17.00;99.90;;;;;;5034973;28;20409;-70
2023/07/09 04:39:35;;;;;;;2.20;2.10;;;17.20;99.90;;;;;;5034958;28;20402;-70
2023/07/09 04:42:01;;;;;;;0.63;0.63;;;17.60;99.90;;;;;;5034344;28;20514;-70
2023/07/09 04:44:27;;;;;;;1.63;1.23;;;18.00;99.90;;;;;;5034957;28;20201;-70
2023/07/09 04:46:52;;;;;;;1.80;1.70;;;18.70;99.90;;;;;;5034675;28;20409;-70
2023/07/09 04:49:18;;;;;;;2.27;2.07;;;19.30;99.90;;;;;;5034964;28;20177;-70
2023/07/09 04:51:43;;;;;;;4.53;1.63;;;19.70;99.90;;;;;;5016887;28;20186;-70
2023/07/09 04:54:09;;;;;;;2.57;1.77;;;19.80;99.90;;;;;;5034766;28;20558;-70
2023/07/09 04:56:36;;;;;;;2.17;2.00;;;19.90;99.90;;;;;;5034579;28;20212;-70
2023/07/09 04:59:02;;;;;;;2.77;1.03;;;19.80;99.90;;;;;;5034654;28;20321;-70
2023/07/09 05:01:28;;;;;;;1.80;1.70;;;19.80;99.90;;;;;;5034350;28;20524;-70
2023/07/09 05:03:54;;;;;;;1.93;1.63;;;19.80;99.90;;;;;;5034100;28;20650;-69
2023/07/09 05:06:21;;;;;;;1.13;1.13;;;19.90;99.90;;;;;;5034218;28;20657;-70
2023/07/09 05:08:48;;;;;;;2.83;1.90;;;20.00;99.90;;;;;;5033212;28;20431;-70
2023/07/09 05:11:14;;;;;;;2.30;1.47;;;20.20;99.90;;;;;;5034363;28;20433;-70
2023/07/09 05:13:40;;;;;;;1.00;1.00;;;20.60;99.90;;;;;;5034199;28;20462;-70
2023/07/09 05:16:06;;;;;;;1.73;0.73;;;20.80;99.90;;;;;;5034274;28;20411;-70
2023/07/09 05:18:32;;;;;;;3.30;1.83;;;21.00;99.90;;;;;;5034330;28;20402;-70
2023/07/09 05:20:57;;;;;;;1.83;1.73;;;21.00;99.90;;;;;;5034034;28;20445;-70
2023/07/09 05:23:25;;;;;;;1.30;1.20;;;21.20;99.90;;;;;;5034199;28;20175;-70
2023/07/09 05:25:57;;;;;;;1.07;0.97;;;21.30;99.90;;;;;;5033987;28;20680;-70
2023/07/09 05:28:23;;;;;;;0.73;0.73;;;21.30;99.90;;;;;;5034104;28;20413;-70
2023/07/09 05:30:48;;;;;;;1.53;1.43;;;21.40;99.90;;;;;;5034098;28;20442;-70
2023/07/09 05:33:14;;;;;;;0.60;0.60;;;21.50;99.90;;;;;;5033773;28;20297;-70
2023/07/09 05:35:42;;;;;;;3.60;2.90;;;21.60;99.90;;;;;;5033571;28;20260;-70
2023/07/09 05:38:07;;;;;;;1.77;1.67;;;21.70;99.90;;;;;;5033286;28;20219;-70
2023/07/09 05:40:33;;;;;;;1.53;1.43;;;21.60;99.90;;;;;;5034085;28;20437;-70
2023/07/09 05:42:58;;;;;;;8.13;1.73;;;21.80;99.90;;;;;;5032967;28;20281;-70
2023/07/09 05:45:24;;;;;;;1.53;1.30;;;21.70;99.50;;;;;;5033488;28;20688;-70
2023/07/09 05:47:49;;;;;;;1.17;1.10;;;21.80;99.90;;;;;;5033656;28;20239;-70
2023/07/09 05:50:15;;;;;;;3.00;1.60;;;22.00;99.90;;;;;;5033880;28;20178;-70
2023/07/09 05:52:41;;;;;;;0.87;0.87;;;22.20;99.90;;;;;;5033017;28;20199;-70
2023/07/09 05:55:07;;;;;;;1.30;1.20;;;22.30;99.90;;;;;;5015640;28;20186;-70
2023/07/09 05:57:32;;;;;;;1.17;1.00;;;22.50;99.90;;;;;;5033593;28;20716;-70
2023/07/09 05:59:58;;;;;;;1.77;0.90;;;22.60;99.90;;;;;;5033450;28;20750;-70
2023/07/09 06:02:23;;;;;;;1.10;1.00;;;22.80;99.80;;;;;;5033458;28;20553;-70
2023/07/09 06:04:49;;;;;;;1.43;0.97;;;22.90;99.80;;;;;;5033321;28;20178;-70
2023/07/09 06:07:15;;;;;;;2.00;1.40;;;23.10;99.20;;;;;;5033171;28;20175;-70
2023/07/09 06:09:41;;;;;;;0.80;0.80;;;23.30;99.30;;;;;;5033439;28;20210;-70
2023/07/09 06:12:07;;;;;;;1.20;1.10;;;23.40;98.90;;;;;;5033207;28;20433;-70
2023/07/09 06:14:34;;;;;;;1.20;1.20;;;23.50;99.20;;;;;;5033277;28;20391;-70
2023/07/09 06:17:00;;;;;;;1.23;0.80;;;23.70;99.00;;;;;;5033103;28;20416;-70
2023/07/09 06:19:26;;;;;;;1.30;1.20;;;24.30;98.40;;;;;;5033335;28;20401;-70
2023/07/09 06:21:52;;;;;;;0.73;0.73;;;25.20;96.70;;;;;;5033215;28;20437;-70
2023/07/09 06:24:18;;;;;;;1.00;1.00;;;26.70;94.60;;;;;;5033368;28;20472;-70
2023/07/09 06:26:43;;;;;;;1.30;1.20;;;28.30;92.00;;;;;;5033041;28;20170;-70
2023/07/09 06:29:09;;;;;;;1.17;0.87;;;30.10;89.60;;;;;;5032944;28;20475;-70
2023/07/09 06:31:37;;;;;;;2.60;1.07;;;31.90;83.40;;;;;;5032286;28;20195;-71
2023/07/09 06:34:03;;;;;;;1.43;1.37;;;33.60;77.80;;;;;;5033120;28;20235;-71
2023/07/09 06:36:29;;;;;;;1.07;1.03;;;35.10;67.80;;;;;;5033211;28;20404;-71
2023/07/09 06:38:55;;;;;;;2.10;1.50;;;36.20;61.10;;;;;;5033633;28;20869;-71
2023/07/09 06:41:21;;;;;;;0.80;0.70;;;37.10;59.10;;;;;;5033642;28;20524;-72
2023/07/09 06:43:46;;;;;;;0.80;0.80;;;38.10;56.40;;;;;;5033065;28;20167;-69
2023/07/09 06:46:14;;;;;;;1.13;1.03;;;38.90;53.50;;;;;;5033407;28;20875;-69
2023/07/09 06:48:39;;;;;;;0.90;0.90;;;39.50;50.60;;;;;;5033421;28;20202;-70
2023/07/09 06:51:05;;;;;;;1.53;1.00;;;39.80;48.10;;;;;;5033186;28;20501;-69
2023/07/09 06:53:31;;;;;;;1.00;1.00;;;39.60;47.00;;;;;;5033438;28;20198;-70
2023/07/09 06:56:00;;;;;;;1.30;1.00;;;39.20;47.80;;;;;;5033329;28;20410;-69
2023/07/09 06:58:28;;;;;;;2.20;1.37;;;38.60;49.40;;;;;;5033536;28;20919;-70
2023/07/09 07:00:55;;;;;;;1.77;1.07;;;38.00;50.10;;;;;;5033138;28;20447;-70
2023/07/09 07:03:23;;;;;;;1.23;1.07;;;37.70;50.40;;;;;;5033268;28;20471;-70
2023/07/09 07:05:50;;;;;;;2.20;1.43;;;37.50;51.70;;;;;;5036002;28;20413;-70
2023/07/09 07:08:18;;;;;;;2.60;1.10;;;37.30;51.80;;;;;;5037072;28;20432;-70
2023/07/09 07:10:46;;;;;;;2.00;1.40;;;37.10;58.90;;;;;;5036835;28;20410;-71
2023/07/09 07:13:12;;;;;;;1.10;1.00;;;36.80;52.00;;;;;;5036693;28;20456;-70
2023/07/09 07:15:38;;;;;;;1.70;1.57;;;36.20;51.60;;;;;;5036452;28;20398;-70
2023/07/09 07:18:04;;;;;;;1.20;0.80;;;35.60;53.10;;;;;;5036014;28;20842;-70
2023/07/09 07:20:31;;;;;;;3.23;3.10;;;35.20;54.60;;;;;;5036511;28;20402;-69
2023/07/09 07:22:57;;;;;;;1.10;1.00;;;34.80;54.10;;;;;;5036553;28;20826;-69
2023/07/09 07:25:23;;;;;;;0.97;0.93;;;34.20;54.50;;;;;;5036413;28;20924;-69
2023/07/09 07:27:49;;;;;;;1.20;0.83;;;33.90;57.70;;;;;;5036215;28;20788;-69
2023/07/09 07:30:15;;;;;;;2.90;2.10;;;33.70;57.50;;;;;;5036634;28;20405;-70
2023/07/09 07:32:47;;;;;;;1.30;1.20;;;33.30;56.80;;;;;;5036393;28;20542;-69
2023/07/09 07:35:13;;;;;;;1.73;1.60;;;32.90;57.50;;;;;;5036761;28;20229;-69
2023/07/09 07:37:40;;;;;;;0.83;0.83;;;32.70;59.80;;;;;;5036201;28;20409;-69
2023/07/09 07:40:06;;;;;;;1.40;1.00;;;32.70;59.00;;;;;;5036468;28;20410;-69
2023/07/09 07:42:32;;;;;;;1.60;0.90;;;32.80;58.50;;;;;;5036148;28;20429;-69
2023/07/09 07:44:58;;;;;;;0.83;0.83;;;33.00;56.40;;;;;;5036096;28;20423;-69
2023/07/09 07:47:24;;;;;;;1.53;0.83;;;33.50;56.50;;;;;;5035792;28;20221;-69
2023/07/09 07:49:49;;;;;;;0.80;0.80;;;33.80;52.60;;;;;;5035792;28;20410;-69
2023/07/09 07:52:15;;;;;;;1.43;1.33;;;34.70;51.80;;;;;;5035496;28;20689;-70
2023/07/09 07:54:41;;;;;;;0.83;0.83;;;35.90;48.00;;;;;;5035668;28;20588;-70
2023/07/09 07:57:08;;;;;;;1.03;0.93;;;37.20;45.60;;;;;;5035565;28;20191;-69
2023/07/09 07:59:35;;;;;;;0.93;0.80;;;38.80;45.00;;;;;;5035893;28;20406;-70
2023/07/09 08:02:02;;;;;;;1.10;0.90;;;40.00;42.30;;;;;;5035582;28;20460;-69
2023/07/09 08:04:28;;;;;;;0.73;0.70;;;40.50;40.50;;;;;;5035728;28;20778;-69
2023/07/09 08:06:54;;;;;;;1.00;0.70;;;40.20;38.70;;;;;;5035417;28;20426;-69
2023/07/09 08:09:20;;;;;;;0.97;0.97;;;40.40;41.00;;;;;;5035453;28;20175;-70
2023/07/09 08:11:46;;;;;;;0.73;0.73;;;40.80;40.10;;;;;;5035338;28;20230;-70
2023/07/09 08:14:12;;;;;;;1.00;0.80;;;41.60;38.70;;;;;;5035720;28;20263;-70
2023/07/09 08:16:38;;;;;;;1.13;0.90;;;42.60;37.60;;;;;;5034576;28;20405;-70
2023/07/09 08:19:05;;;;;;;1.93;0.80;;;42.70;35.70;;;;;;5035557;28;20419;-69
2023/07/09 08:21:31;;;;;;;1.90;1.40;;;41.80;36.60;;;;;;5035375;28;20417;-70
2023/07/09 08:23:56;;;;;;;0.80;0.80;;;42.10;35.90;;;;;;5035427;28;20800;-70
2023/07/09 08:26:24;;;;;;;1.23;0.93;;;42.80;37.40;;;;;;5035094;28;20253;-70
2023/07/09 08:28:50;;;;;;;3.40;1.50;;;42.60;35.40;;;;;;5035252;28;20593;-70
2023/07/09 08:31:16;;;;;;;1.47;1.00;;;43.10;34.70;;;;;;5035208;28;20441;-70
2023/07/09 08:33:41;;;;;;;1.40;1.03;;;42.60;34.70;;;;;;5035109;28;21012;-69
2023/07/09 08:36:07;;;;;;;1.67;1.17;;;42.90;35.50;;;;;;5034949;28;20414;-70
2023/07/09 08:38:34;;;;;;;0.97;0.90;;;43.40;33.80;;;;;;5035108;28;20166;-70
2023/07/09 08:41:14;;;;;;;1.47;1.10;;;44.10;35.60;;;;;;5034885;28;20528;-70
2023/07/09 08:44:13;;;;;;;2.03;1.30;;;44.40;32.20;;;;;;5034861;28;20855;-70
2023/07/09 08:47:07;;;;;;;0.87;0.67;;;43.20;32.60;;;;;;5034514;28;20816;-70
2023/07/09 08:49:50;;;;;;;1.10;0.57;;;42.30;34.10;;;;;;5034839;28;20405;-69
2023/07/09 08:52:25;;;;;;;1.63;1.00;;;41.80;34.70;;;;;;5034745;28;20425;-70
2023/07/09 08:54:52;;;;;;;1.23;0.80;;;41.60;35.60;;;;;;5034862;28;20397;-69
2023/07/09 08:57:23;;;;;;;1.70;1.00;;;41.40;35.30;;;;;;5034397;28;20398;-69
2023/07/09 08:59:53;;;;;;;0.87;0.80;;;40.80;35.50;;;;;;5034636;28;20428;-70
2023/07/09 09:02:45;;;;;;;0.80;0.80;;;40.50;37.40;;;;;;5034326;28;20445;-70
2023/07/09 09:05:16;;;;;;;1.00;0.90;;;41.10;36.40;;;;;;5034521;28;20464;-70
2023/07/09 09:07:44;;;;;;;1.07;0.97;;;40.70;34.50;;;;;;5034246;28;20406;-69
2023/07/09 09:10:23;;;;;;;1.50;1.37;;;40.50;35.30;;;;;;5034398;28;20398;-70
2023/07/09 09:13:11;;;;;;;0.90;0.80;;;41.10;36.00;;;;;;5034400;28;20429;-70
2023/07/09 09:15:39;;;;;;;1.37;1.27;;;41.50;34.80;;;;;;5034244;28;20405;-70
2023/07/09 09:18:26;;;;;;;1.20;1.07;;;42.40;35.10;;;;;;5034356;28;20890;-70
2023/07/09 09:20:57;;;;;;;1.33;0.90;;;42.70;32.10;;;;;;5016452;28;20944;-70
2023/07/09 09:23:31;;;;;;;2.00;0.87;;;42.40;32.70;;;;;;5034311;28;20468;-70
2023/07/09 09:26:01;;;;;;;0.90;0.70;;;42.10;31.20;;;;;;5034036;28;20977;-69
2023/07/09 09:28:27;;;;;;;1.20;1.10;;;41.70;33.60;;;;;;5034021;28;20452;-70
2023/07/09 09:30:53;;;;;;;1.10;1.10;;;42.00;32.50;;;;;;5033913;28;20850;-70
2023/07/09 09:33:18;;;;;;;0.80;0.80;;;42.30;31.90;;;;;;5033899;28;20410;-70
2023/07/09 09:35:45;;;;;;;1.23;0.90;;;42.30;33.20;;;;;;5033792;28;20198;-70
2023/07/09 09:38:12;;;;;;;1.10;1.00;;;41.90;32.60;;;;;;5033963;28;20166;-70
2023/07/09 09:40:38;;;;;;;1.10;1.00;;;41.10;33.10;;;;;;5033907;28;20410;-70
2023/07/09 09:43:14;;;;;;;2.10;1.10;;;40.80;33.10;;;;;;5033663;28;20805;-70
2023/07/09 09:45:40;;;;;;;1.07;0.97;;;39.90;33.80;;;;;;5033988;28;20584;-70
2023/07/09 09:48:26;;;;;;;0.93;0.93;;;39.30;34.50;;;;;;5033825;28;20421;-70
2023/07/09 09:50:52;;;;;;;1.57;0.80;;;39.10;34.00;;;;;;5033832;28;20512;-70
2023/07/09 09:53:29;;;;;;;1.07;0.97;;;39.30;35.60;;;;;;5033678;28;20520;-70
2023/07/09 09:55:56;;;;;;;0.93;0.93;;;39.50;34.80;;;;;;5033428;28;20167;-70
2023/07/09 09:58:28;;;;;;;1.00;0.90;;;39.50;34.90;;;;;;5033747;28;20821;-72
2023/07/09 10:00:57;;;;;;;0.93;0.93;;;39.40;36.50;;;;;;5032930;28;20782;-72
2023/07/09 10:03:33;;;;;;;1.90;0.80;;;39.60;34.60;;;;;;5033345;28;20441;-72
2023/07/09 10:06:26;;;;;;;1.00;1.00;;;39.70;35.90;;;;;;5033438;28;20402;-72
2023/07/09 10:09:01;;;;;;;1.00;1.00;;;38.80;36.50;;;;;;5022713;28;20931;-72
2023/07/09 10:11:44;;;;;;;0.73;0.73;;;38.30;38.20;;;;;;5033390;28;20429;-72
2023/07/09 10:14:22;;;;;;;1.83;1.20;;;38.30;36.40;;;;;;5033481;28;20473;-72
2023/07/09 10:16:56;;;;;;;0.83;0.83;;;38.00;37.00;;;;;;5033257;28;20405;-72
2023/07/09 10:19:41;;;;;;;2.27;1.53;;;37.30;37.30;;;;;;5015636;28;20505;-72
2023/07/09 10:22:16;;;;;;;0.70;0.70;;;36.70;38.40;;;;;;5033342;28;20425;-71
2023/07/09 10:24:56;;;;;;;1.37;1.27;;;36.20;39.30;;;;;;5033231;28;20401;-72
2023/07/09 10:27:27;;;;;;;0.93;0.93;;;36.00;40.50;;;;;;5033192;28;20915;-72
2023/07/09 10:30:19;;;;;;;1.30;1.10;;;35.60;40.50;;;;;;5033295;28;20393;-71
2023/07/09 10:32:50;;;;;;;1.07;1.03;;;34.70;43.50;;;;;;5033196;28;20413;-71
2023/07/09 10:35:42;;;;;;;1.57;0.93;;;34.70;44.10;;;;;;5033354;28;20397;-72
2023/07/09 10:38:26;;;;;;;1.23;1.10;;;35.00;43.00;;;;;;5029155;28;20445;-72
2023/07/09 10:40:59;;;;;;;1.03;0.93;;;34.80;41.40;;;;;;5036617;28;21328;-71
2023/07/09 10:43:43;;;;;;;1.43;1.00;;;34.90;42.30;;;;;;5037085;28;20445;-72
2023/07/09 10:46:17;;;;;;;1.13;0.87;;;35.30;41.20;;;;;;5037496;28;20484;-71
2023/07/09 10:48:49;;;;;;;1.10;1.00;;;35.50;45.30;;;;;;5037297;28;20416;-71
2023/07/09 10:51:18;;;;;;;2.40;1.37;;;35.60;40.90;;;;;;5036995;28;20421;-72
2023/07/09 10:53:55;;;;;;;1.33;0.97;;;35.60;40.70;;;;;;5036908;28;20413;-71
2023/07/09 10:56:25;;;;;;;2.50;1.00;;;35.30;41.30;;;;;;5036831;28;20760;-71
2023/07/09 10:59:00;;;;;;;1.03;1.00;;;34.40;41.40;;;;;;5037141;28;20489;-71
2023/07/09 11:01:39;;;;;;;0.70;0.70;;;33.60;41.90;;;;;;5036628;28;20476;-72
2023/07/09 11:04:31;;;;;;;1.43;0.90;;;33.30;43.90;;;;;;5036758;28;20448;-72
2023/07/09 11:07:00;;;;;;;1.13;1.03;;;33.00;42.80;;;;;;5036570;28;20748;-72
2023/07/09 11:09:32;;;;;;;0.70;0.70;;;32.60;43.30;;;;;;5036817;28;20409;-71
2023/07/09 11:12:06;;;;;;;1.57;1.03;;;32.40;42.80;;;;;;5036966;28;20425;-71
2023/07/09 11:14:43;;;;;;;1.37;1.20;;;32.50;47.50;;;;;;5036514;28;20410;-71
2023/07/09 11:17:15;;;;;;;2.07;1.93;;;32.80;45.50;;;;;;5036519;28;20405;-71
2023/07/09 11:19:44;;;;;;;1.30;1.20;;;32.70;44.70;;;;;;5036913;28;20393;-71
2023/07/09 11:22:19;;;;;;;1.20;1.10;;;32.30;45.60;;;;;;5036453;28;20437;-71
2023/07/09 11:24:52;;;;;;;2.83;1.30;;;32.00;44.70;;;;;;5018831;28;20913;-72
2023/07/09 11:27:24;;;;;;;0.80;0.70;;;32.00;46.60;;;;;;5036201;28;20421;-72
2023/07/09 11:30:24;;;;;;;1.67;0.80;;;31.80;45.20;;;;;;5018571;28;20921;-71
2023/07/09 11:33:04;;;;;;;2.63;1.03;;;32.00;49.10;;;;;;5021452;28;20437;-72
2023/07/09 11:35:46;;;;;;;1.57;1.47;;;32.20;44.80;;;;;;5036195;28;20412;-72
2023/07/09 11:38:25;;;;;;;0.90;0.90;;;32.10;43.00;;;;;;5036322;28;20398;-72
2023/07/09 11:40:56;;;;;;;1.30;1.00;;;32.70;55.40;;;;;;5036325;28;20397;-72
2023/07/09 11:43:32;;;;;;;1.60;0.97;;;32.80;44.20;;;;;;5036175;28;20520;-71
2023/07/09 11:46:12;;;;;;;0.80;0.80;;;33.00;45.50;;;;;;5035927;28;20881;-72
2023/07/09 11:48:40;;;;;;;1.70;1.23;;;33.00;45.70;;;;;;5036201;28;20404;-71
2023/07/09 11:51:21;;;;;;;1.30;1.00;;;33.00;45.00;;;;;;5034916;28;20436;-71
2023/07/09 11:53:52;;;;;;;1.50;1.40;;;32.80;44.30;;;;;;5036034;28;20432;-71
2023/07/09 11:56:23;;;;;;;0.60;0.60;;;32.60;44.40;;;;;;5035733;28;20406;-72
2023/07/09 11:58:51;;;;;;;0.93;0.93;;;32.40;45.50;;;;;;5036105;28;20812;-72
2023/07/09 12:01:21;;;;;;;1.03;0.80;;;32.40;44.00;;;;;;5035658;28;20461;-71
2023/07/09 12:03:48;;;;;;;3.23;1.20;;;32.40;43.40;;;;;;5017863;28;20541;-72
2023/07/09 12:06:24;;;;;;;1.27;1.10;;;32.40;44.40;;;;;;5035567;28;20405;-72
2023/07/09 12:08:51;;;;;;;1.70;1.10;;;32.20;45.70;;;;;;5035634;28;20398;-71
2023/07/09 12:11:25;;;;;;;1.03;1.00;;;32.20;44.50;;;;;;5035952;28;20495;-72
2023/07/09 12:13:53;;;;;;;1.80;1.70;;;32.20;45.10;;;;;;5035444;28;20432;-72
2023/07/09 12:16:23;;;;;;;3.23;1.20;;;32.10;44.80;;;;;;5035297;28;20410;-71
2023/07/09 12:18:48;;;;;;;0.80;0.77;;;32.00;46.80;;;;;;5017724;28;20994;-71
2023/07/09 12:21:14;;;;;;;0.93;0.90;;;32.10;45.60;;;;;;5035497;28;20429;-71
2023/07/09 12:23:40;;;;;;;0.90;0.90;;;32.20;46.60;;;;;;5035680;28;20195;-72
2023/07/09 12:26:11;;;;;;;1.70;0.97;;;32.00;44.80;;;;;;5035005;28;20233;-71
2023/07/09 12:28:36;;;;;;;1.37;1.27;;;31.80;45.20;;;;;;5035154;28;20401;-72
2023/07/09 12:31:02;;;;;;;2.43;0.93;;;32.00;46.00;;;;;;5034893;28;20428;-71
2023/07/09 12:33:28;;;;;;;1.67;1.37;;;32.00;45.40;;;;;;5035928;28;20757;-72
2023/07/09 12:35:59;;;;;;;0.93;0.93;;;31.90;44.40;;;;;;5017247;28;20182;-71
2023/07/09 12:38:29;;;;;;;2.87;1.63;;;31.80;45.80;;;;;;5035366;28;20410;-71
2023/07/09 12:40:55;;;;;;;1.10;1.10;;;31.80;44.90;;;;;;5035098;28;20430;-72
2023/07/09 12:43:31;;;;;;;0.83;0.83;;;31.90;45.20;;;;;;5035078;28;20445;-72
2023/07/09 12:45:58;;;;;;;1.07;0.80;;;31.90;49.10;;;;;;5034862;28;20409;-71
2023/07/09 12:48:29;;;;;;;1.23;1.17;;;31.90;43.80;;;;;;5034996;28;20928;-72
2023/07/09 12:50:59;;;;;;;1.10;1.00;;;31.60;43.10;;;;;;5034983;28;20424;-71
2023/07/09 12:53:28;;;;;;;1.43;0.87;;;31.60;43.40;;;;;;5034804;28;20905;-72
2023/07/09 12:55:59;;;;;;;1.00;0.90;;;31.70;45.20;;;;;;5016978;28;20410;-72
2023/07/09 12:58:30;;;;;;;3.53;1.00;;;31.80;44.80;;;;;;5035015;28;20416;-71